createdAt,value
2019-01-05T00:00:36.433Z,1.60
2019-01-05T00:01:35.599Z,1.80
2019-01-05T00:02:35.589Z,1.60
2019-01-05T00:03:35.577Z,1.40
2019-01-05T00:04:35.585Z,1.70
2019-01-05T00:05:36.428Z,1.60
2019-01-05T00:06:35.556Z,1.60
2019-01-05T00:07:35.531Z,1.90
2019-01-05T00:08:35.526Z,1.60
2019-01-05T00:09:35.531Z,1.70
2019-01-05T00:10:35.501Z,1.70
2019-01-05T00:11:35.488Z,1.80
2019-01-05T00:12:36.435Z,1.60
2019-01-05T00:13:35.467Z,1.80
2019-01-05T00:14:35.474Z,1.60
2019-01-05T00:15:36.428Z,1.60
2019-01-05T00:16:35.441Z,1.80
2019-01-05T00:17:35.423Z,1.70
2019-01-05T00:18:35.946Z,1.80
2019-01-05T00:19:35.421Z,1.70
2019-01-05T00:20:35.393Z,1.60
2019-01-05T00:21:35.379Z,1.70
2019-01-05T00:22:35.934Z,1.60
2019-01-05T00:23:35.940Z,1.70
2019-01-05T00:24:35.377Z,1.70
2019-01-05T00:25:35.336Z,1.80
2019-01-05T00:26:35.324Z,1.80
2019-01-05T00:27:35.313Z,1.40
2019-01-05T00:28:35.932Z,1.80
2019-01-05T00:29:35.445Z,1.80
2019-01-05T00:30:35.929Z,1.80
2019-01-05T00:31:35.950Z,1.80
2019-01-05T00:32:35.259Z,1.60
2019-01-05T00:33:35.934Z,1.80
2019-01-05T00:34:35.462Z,1.70
2019-01-05T00:35:35.223Z,1.70
2019-01-05T00:36:35.932Z,1.80
2019-01-05T00:37:35.198Z,1.80
2019-01-05T00:38:35.191Z,1.70
2019-01-05T00:39:35.451Z,1.40
2019-01-05T00:40:35.932Z,1.70
2019-01-05T00:41:35.160Z,1.60
2019-01-05T00:42:35.147Z,1.50
2019-01-05T00:43:35.136Z,1.60
2019-01-05T00:44:35.155Z,1.50
2019-01-05T00:45:35.948Z,1.70
2019-01-05T00:46:35.107Z,1.60
2019-01-05T00:47:35.092Z,1.80
2019-01-05T00:48:35.080Z,1.50
2019-01-05T00:49:35.448Z,2.10
2019-01-05T00:50:35.933Z,1.50
2019-01-05T00:51:35.053Z,1.90
2019-01-05T00:52:35.933Z,1.70
2019-01-05T00:53:35.027Z,1.90
2019-01-05T00:54:35.036Z,2.10
2019-01-05T00:55:35.005Z,1.50
2019-01-05T00:56:35.934Z,1.50
2019-01-05T00:57:34.985Z,1.90
2019-01-05T00:58:34.973Z,1.60
2019-01-05T00:59:35.451Z,1.80
2019-01-05T01:00:34.954Z,2.00
2019-01-05T01:01:34.937Z,1.80
2019-01-05T01:02:35.431Z,1.70
2019-01-05T01:03:34.922Z,1.80
2019-01-05T01:04:34.953Z,1.90
2019-01-05T01:05:34.895Z,2.10
2019-01-05T01:06:34.885Z,1.90
2019-01-05T01:07:34.875Z,1.60
2019-01-05T01:08:35.434Z,1.80
2019-01-05T01:09:34.863Z,1.60
2019-01-05T01:10:34.842Z,1.70
2019-01-05T01:11:34.829Z,1.70
2019-01-05T01:12:34.822Z,1.70
2019-01-05T01:13:34.810Z,1.80
2019-01-05T01:14:34.813Z,1.60
2019-01-05T01:15:34.787Z,1.90
2019-01-05T01:16:34.773Z,1.70
2019-01-05T01:17:34.763Z,1.70
2019-01-05T01:18:34.752Z,1.90
2019-01-05T01:19:34.754Z,1.40
2019-01-05T01:20:34.731Z,1.80
2019-01-05T01:21:34.722Z,1.50
2019-01-05T01:22:34.708Z,1.60
2019-01-05T01:23:34.695Z,1.50
2019-01-05T01:24:34.705Z,1.80
2019-01-05T01:25:35.436Z,1.70
2019-01-05T01:26:34.685Z,1.60
2019-01-05T01:27:34.652Z,2.10
2019-01-05T01:28:34.644Z,1.60
2019-01-05T01:29:34.644Z,1.60
2019-01-05T01:30:34.625Z,1.60
2019-01-05T01:31:34.666Z,1.70
2019-01-05T01:32:34.598Z,1.50
2019-01-05T01:33:34.587Z,1.80
2019-01-05T01:34:34.966Z,1.80
2019-01-05T01:35:34.567Z,1.90
2019-01-05T01:36:34.562Z,1.50
2019-01-05T01:37:34.551Z,1.80
2019-01-05T01:38:34.547Z,1.60
2019-01-05T01:39:34.949Z,1.60
2019-01-05T01:40:35.437Z,1.70
2019-01-05T01:41:35.451Z,1.70
2019-01-05T01:42:34.491Z,1.70
2019-01-05T01:43:35.437Z,1.70
2019-01-05T01:44:34.470Z,1.70
2019-01-05T01:45:34.956Z,1.70
2019-01-05T01:46:34.451Z,1.50
2019-01-05T01:47:34.432Z,1.60
2019-01-05T01:48:34.950Z,1.80
2019-01-05T01:49:34.413Z,1.70
2019-01-05T01:50:34.426Z,2.10
2019-01-05T01:51:34.387Z,1.60
2019-01-05T01:52:34.380Z,1.70
2019-01-05T01:53:34.369Z,1.60
2019-01-05T01:54:34.357Z,1.80
2019-01-05T01:55:34.357Z,1.80
2019-01-05T01:56:34.335Z,1.20
2019-01-05T01:57:34.325Z,1.60
2019-01-05T01:58:34.315Z,1.50
2019-01-05T01:59:34.299Z,1.70
2019-01-05T02:00:34.306Z,2.10
2019-01-05T02:01:34.280Z,2.00
2019-01-05T02:02:34.265Z,1.60
2019-01-05T02:03:34.262Z,1.50
2019-01-05T02:04:34.245Z,1.50
2019-01-05T02:05:34.459Z,1.70
2019-01-05T02:06:34.229Z,1.70
2019-01-05T02:07:34.216Z,1.70
2019-01-05T02:08:34.202Z,1.40
2019-01-05T02:09:34.191Z,1.60
2019-01-05T02:10:34.200Z,1.70
2019-01-05T02:11:34.174Z,1.70
2019-01-05T02:12:34.162Z,1.60
2019-01-05T02:13:34.940Z,1.70
2019-01-05T02:14:34.138Z,1.60
2019-01-05T02:15:34.146Z,1.70
2019-01-05T02:16:34.154Z,1.40
2019-01-05T02:17:34.106Z,1.50
2019-01-05T02:18:34.092Z,1.60
2019-01-05T02:19:34.078Z,1.50
2019-01-05T02:20:34.091Z,1.70
2019-01-05T02:21:34.063Z,1.70
2019-01-05T02:22:34.058Z,1.90
2019-01-05T02:23:34.970Z,1.40
2019-01-05T02:24:34.028Z,1.50
2019-01-05T02:25:34.037Z,1.40
2019-01-05T02:26:34.004Z,1.60
2019-01-05T02:27:34.015Z,1.50
2019-01-05T02:28:34.942Z,1.70
2019-01-05T02:29:33.977Z,1.60
2019-01-05T02:30:34.452Z,1.60
2019-01-05T02:31:33.952Z,1.60
2019-01-05T02:32:33.943Z,1.50
2019-01-05T02:33:34.440Z,1.20
2019-01-05T02:34:33.928Z,1.60
2019-01-05T02:35:33.955Z,1.40
2019-01-05T02:36:33.897Z,1.50
2019-01-05T02:37:33.894Z,1.80
2019-01-05T02:38:33.874Z,1.40
2019-01-05T02:39:34.439Z,1.70
2019-01-05T02:40:33.871Z,1.40
2019-01-05T02:41:33.841Z,1.60
2019-01-05T02:42:33.853Z,1.40
2019-01-05T02:43:33.821Z,1.50
2019-01-05T02:44:33.811Z,1.40
2019-01-05T02:45:33.821Z,1.60
2019-01-05T02:46:33.789Z,1.60
2019-01-05T02:47:34.444Z,1.40
2019-01-05T02:48:33.764Z,1.50
2019-01-05T02:49:33.753Z,1.60
2019-01-05T02:50:33.757Z,1.70
2019-01-05T02:51:34.481Z,1.40
2019-01-05T02:52:33.720Z,1.60
2019-01-05T02:53:33.708Z,1.60
2019-01-05T02:54:33.695Z,1.70
2019-01-05T02:55:33.705Z,1.50
2019-01-05T02:56:33.677Z,1.50
2019-01-05T02:57:33.666Z,1.50
2019-01-05T02:58:33.676Z,1.40
2019-01-05T02:59:33.643Z,1.80
2019-01-05T03:00:33.644Z,1.60
2019-01-05T03:01:34.441Z,1.30
2019-01-05T03:02:33.612Z,1.60
2019-01-05T03:03:34.460Z,1.40
2019-01-05T03:04:33.588Z,1.20
2019-01-05T03:05:33.596Z,1.20
2019-01-05T03:06:34.442Z,1.40
2019-01-05T03:07:33.557Z,1.50
2019-01-05T03:08:33.544Z,1.50
2019-01-05T03:09:34.444Z,1.40
2019-01-05T03:10:34.023Z,1.30
2019-01-05T03:11:33.523Z,1.50
2019-01-05T03:12:34.442Z,1.30
2019-01-05T03:13:34.442Z,1.60
2019-01-05T03:14:33.480Z,1.70
2019-01-05T03:15:33.495Z,1.30
2019-01-05T03:16:33.455Z,1.50
2019-01-05T03:17:33.476Z,1.10
2019-01-05T03:18:33.946Z,1.20
2019-01-05T03:19:33.947Z,1.70
2019-01-05T03:20:33.433Z,1.60
2019-01-05T03:21:33.954Z,1.60
2019-01-05T03:22:33.386Z,1.40
2019-01-05T03:23:33.382Z,1.40
2019-01-05T03:24:33.942Z,1.40
2019-01-05T03:25:33.380Z,1.50
2019-01-05T03:26:33.349Z,1.40
2019-01-05T03:27:33.328Z,1.50
2019-01-05T03:28:33.320Z,1.40
2019-01-05T03:29:33.313Z,1.60
2019-01-05T03:30:33.468Z,1.50
2019-01-05T03:31:33.308Z,1.50
2019-01-05T03:32:33.955Z,1.40
2019-01-05T03:33:33.268Z,1.40
2019-01-05T03:34:33.257Z,1.30
2019-01-05T03:35:33.260Z,1.70
2019-01-05T03:36:33.230Z,1.40
2019-01-05T03:37:33.217Z,1.40
2019-01-05T03:38:33.227Z,1.40
2019-01-05T03:39:33.206Z,1.50
2019-01-05T03:40:33.461Z,1.50
2019-01-05T03:41:33.178Z,1.20
2019-01-05T03:42:33.943Z,1.40
2019-01-05T03:43:33.190Z,1.30
2019-01-05T03:44:33.192Z,1.30
2019-01-05T03:45:33.211Z,1.20
2019-01-05T03:46:33.123Z,1.40
2019-01-05T03:47:33.947Z,1.40
2019-01-05T03:48:33.105Z,1.50
2019-01-05T03:49:33.087Z,1.30
2019-01-05T03:50:33.081Z,1.30
2019-01-05T03:51:33.466Z,1.30
2019-01-05T03:52:33.062Z,1.30
2019-01-05T03:53:33.048Z,1.30
2019-01-05T03:54:33.941Z,1.30
2019-01-05T03:55:33.950Z,1.60
2019-01-05T03:56:33.035Z,1.50
2019-01-05T03:57:33.002Z,1.30
2019-01-05T03:58:32.995Z,1.20
2019-01-05T03:59:32.994Z,1.40
2019-01-05T04:00:32.997Z,1.30
2019-01-05T04:01:33.059Z,1.30
2019-01-05T04:02:32.948Z,1.10
2019-01-05T04:03:32.935Z,1.10
2019-01-05T04:04:32.928Z,1.40
2019-01-05T04:05:32.919Z,1.10
2019-01-05T04:06:32.918Z,1.50
2019-01-05T04:07:32.892Z,1.40
2019-01-05T04:08:32.881Z,1.10
2019-01-05T04:09:32.873Z,1.40
2019-01-05T04:10:32.858Z,1.20
2019-01-05T04:11:32.860Z,1.20
2019-01-05T04:12:32.833Z,1.40
2019-01-05T04:13:32.824Z,1.20
2019-01-05T04:14:32.814Z,1.10
2019-01-05T04:15:32.801Z,1.20
2019-01-05T04:16:32.803Z,1.30
2019-01-05T04:17:33.445Z,1.30
2019-01-05T04:18:33.444Z,1.10
2019-01-05T04:19:32.754Z,1.10
2019-01-05T04:20:32.747Z,1.30
2019-01-05T04:21:32.964Z,1.10
2019-01-05T04:22:32.735Z,1.30
2019-01-05T04:23:32.717Z,1.10
2019-01-05T04:24:32.702Z,1.30
2019-01-05T04:25:33.445Z,1.20
2019-01-05T04:26:32.692Z,1.30
2019-01-05T04:27:33.446Z,1.50
2019-01-05T04:28:32.653Z,1.10
2019-01-05T04:29:32.645Z,1.20
2019-01-05T04:30:32.637Z,1.30
2019-01-05T04:31:32.638Z,1.20
2019-01-05T04:32:32.623Z,1.10
2019-01-05T04:33:33.462Z,1.10
2019-01-05T04:34:32.595Z,1.40
2019-01-05T04:35:32.581Z,0.90
2019-01-05T04:36:32.645Z,1.30
2019-01-05T04:37:33.443Z,1.10
2019-01-05T04:38:33.446Z,1.00
2019-01-05T04:39:33.446Z,1.10
2019-01-05T04:40:32.531Z,0.90
2019-01-05T04:41:32.579Z,1.20
2019-01-05T04:42:33.448Z,1.30
2019-01-05T04:43:32.495Z,1.10
2019-01-05T04:44:32.490Z,1.30
2019-01-05T04:45:32.470Z,1.30
2019-01-05T04:46:32.503Z,1.10
2019-01-05T04:47:32.448Z,1.40
2019-01-05T04:48:32.945Z,1.20
2019-01-05T04:49:32.947Z,1.40
2019-01-05T04:50:32.422Z,1.40
2019-01-05T04:51:32.417Z,1.30
2019-01-05T04:52:32.396Z,1.20
2019-01-05T04:53:32.385Z,1.00
2019-01-05T04:54:32.949Z,1.00
2019-01-05T04:55:32.359Z,1.00
2019-01-05T04:56:32.368Z,1.40
2019-01-05T04:57:32.952Z,1.30
2019-01-05T04:58:32.327Z,1.10
2019-01-05T04:59:32.318Z,1.10
2019-01-05T05:00:32.305Z,1.10
2019-01-05T05:01:32.313Z,1.10
2019-01-05T05:02:32.954Z,1.10
2019-01-05T05:03:32.280Z,1.30
2019-01-05T05:04:32.262Z,0.90
2019-01-05T05:05:32.247Z,1.20
2019-01-05T05:06:32.461Z,1.30
2019-01-05T05:07:32.226Z,1.30
2019-01-05T05:08:32.216Z,1.10
2019-01-05T05:09:32.202Z,1.10
2019-01-05T05:10:32.197Z,1.20
2019-01-05T05:11:32.263Z,1.20
2019-01-05T05:12:32.953Z,1.10
2019-01-05T05:13:32.163Z,1.10
2019-01-05T05:14:32.947Z,1.10
2019-01-05T05:15:32.144Z,1.20
2019-01-05T05:16:32.152Z,0.90
2019-01-05T05:17:32.118Z,0.80
2019-01-05T05:18:32.109Z,1.00
2019-01-05T05:19:32.094Z,1.10
2019-01-05T05:20:32.951Z,1.00
2019-01-05T05:21:32.106Z,0.90
2019-01-05T05:22:32.060Z,1.10
2019-01-05T05:23:32.067Z,1.20
2019-01-05T05:24:32.042Z,1.10
2019-01-05T05:25:32.044Z,1.00
2019-01-05T05:26:32.464Z,1.00
2019-01-05T05:27:32.004Z,1.10
2019-01-05T05:28:32.001Z,1.20
2019-01-05T05:29:31.992Z,1.10
2019-01-05T05:30:31.977Z,1.00
2019-01-05T05:31:31.986Z,1.00
2019-01-05T05:32:32.947Z,1.20
2019-01-05T05:33:31.939Z,0.80
2019-01-05T05:34:31.931Z,1.20
2019-01-05T05:35:31.919Z,1.00
2019-01-05T05:36:31.937Z,1.10
2019-01-05T05:37:31.903Z,0.90
2019-01-05T05:38:31.897Z,1.00
2019-01-05T05:39:32.456Z,1.00
2019-01-05T05:40:31.868Z,1.00
2019-01-05T05:41:31.865Z,1.10
2019-01-05T05:42:31.840Z,0.90
2019-01-05T05:43:31.833Z,1.10
2019-01-05T05:44:31.821Z,1.10
2019-01-05T05:45:32.449Z,1.10
2019-01-05T05:46:31.813Z,1.00
2019-01-05T05:47:31.786Z,0.80
2019-01-05T05:48:31.780Z,1.20
2019-01-05T05:49:31.763Z,0.70
2019-01-05T05:50:31.749Z,1.10
2019-01-05T05:51:31.803Z,0.90
2019-01-05T05:52:32.456Z,0.80
2019-01-05T05:53:31.736Z,0.80
2019-01-05T05:54:32.451Z,1.00
2019-01-05T05:55:31.707Z,0.90
2019-01-05T05:56:31.694Z,0.90
2019-01-05T05:57:31.965Z,1.00
2019-01-05T05:58:31.668Z,0.90
2019-01-05T05:59:32.450Z,1.10
2019-01-05T06:00:31.864Z,0.80
2019-01-05T06:01:31.632Z,0.80
2019-01-05T06:02:31.738Z,0.90
2019-01-05T06:03:31.647Z,0.80
2019-01-05T06:04:32.449Z,0.90
2019-01-05T06:05:31.586Z,0.70
2019-01-05T06:06:32.447Z,0.80
2019-01-05T06:07:31.583Z,0.80
2019-01-05T06:08:31.555Z,0.90
2019-01-05T06:09:31.548Z,1.10
2019-01-05T06:10:31.535Z,0.90
2019-01-05T06:11:31.522Z,1.00
2019-01-05T06:12:31.539Z,1.20
2019-01-05T06:13:31.512Z,0.70
2019-01-05T06:14:31.490Z,0.90
2019-01-05T06:15:31.482Z,0.80
2019-01-05T06:16:31.468Z,1.10
2019-01-05T06:17:31.961Z,0.90
2019-01-05T06:18:31.999Z,1.00
2019-01-05T06:19:31.434Z,0.90
2019-01-05T06:20:31.423Z,0.90
2019-01-05T06:21:31.414Z,1.10
2019-01-05T06:22:31.420Z,0.70
2019-01-05T06:23:31.411Z,0.90
2019-01-05T06:24:31.402Z,0.90
2019-01-05T06:25:31.367Z,0.90
2019-01-05T06:26:31.358Z,1.20
2019-01-05T06:27:31.466Z,0.80
2019-01-05T06:28:31.340Z,0.90
2019-01-05T06:29:31.960Z,0.90
2019-01-05T06:30:31.313Z,0.80
2019-01-05T06:31:31.309Z,0.60
2019-01-05T06:32:31.311Z,0.80
2019-01-05T06:33:31.282Z,0.90
2019-01-05T06:34:31.963Z,0.90
2019-01-05T06:35:31.259Z,0.90
2019-01-05T06:36:31.248Z,0.60
2019-01-05T06:37:31.250Z,1.00
2019-01-05T06:38:31.224Z,0.70
2019-01-05T06:39:31.957Z,1.00
2019-01-05T06:40:31.203Z,0.70
2019-01-05T06:41:31.955Z,1.00
2019-01-05T06:42:31.194Z,0.90
2019-01-05T06:43:31.169Z,0.90
2019-01-05T06:44:31.953Z,0.90
2019-01-05T06:45:31.150Z,0.80
2019-01-05T06:46:31.141Z,0.80
2019-01-05T06:47:31.142Z,0.90
2019-01-05T06:48:31.115Z,0.90
2019-01-05T06:49:31.105Z,0.90
2019-01-05T06:50:31.094Z,0.80
2019-01-05T06:51:31.960Z,0.90
2019-01-05T06:52:31.476Z,0.60
2019-01-05T06:53:31.062Z,0.90
2019-01-05T06:54:31.093Z,0.70
2019-01-05T06:55:31.039Z,0.80
2019-01-05T06:56:31.024Z,0.80
2019-01-05T06:57:31.467Z,0.80
2019-01-05T06:58:31.006Z,0.80
2019-01-05T06:59:31.059Z,0.80
2019-01-05T07:00:30.987Z,0.80
2019-01-05T07:01:30.981Z,0.80
2019-01-05T07:02:30.980Z,0.80
2019-01-05T07:03:31.458Z,0.80
2019-01-05T07:04:31.018Z,0.80
2019-01-05T07:05:30.928Z,0.70
2019-01-05T07:06:30.918Z,0.80
2019-01-05T07:07:30.963Z,0.60
2019-01-05T07:08:30.895Z,0.70
2019-01-05T07:09:31.458Z,0.80
2019-01-05T07:10:30.877Z,0.90
2019-01-05T07:11:30.859Z,0.60
2019-01-05T07:12:30.969Z,0.90
2019-01-05T07:13:30.840Z,0.90
2019-01-05T07:14:30.827Z,1.00
2019-01-05T07:15:30.815Z,0.70
2019-01-05T07:16:31.459Z,0.50
2019-01-05T07:17:30.810Z,0.80
2019-01-05T07:18:30.787Z,0.70
2019-01-05T07:19:31.456Z,0.80
2019-01-05T07:20:30.764Z,0.70
2019-01-05T07:21:31.457Z,0.60
2019-01-05T07:22:30.971Z,0.90
2019-01-05T07:23:30.727Z,0.90
2019-01-05T07:24:31.454Z,0.70
2019-01-05T07:25:30.706Z,0.90
2019-01-05T07:26:30.695Z,0.60
2019-01-05T07:27:30.695Z,0.60
2019-01-05T07:28:30.686Z,0.60
2019-01-05T07:29:30.664Z,0.60
2019-01-05T07:30:30.651Z,0.60
2019-01-05T07:31:30.639Z,0.80
2019-01-05T07:32:30.648Z,0.80
2019-01-05T07:33:31.457Z,0.80
2019-01-05T07:34:30.612Z,0.70
2019-01-05T07:35:30.596Z,0.70
2019-01-05T07:36:30.584Z,0.60
2019-01-05T07:37:30.974Z,0.90
2019-01-05T07:38:30.560Z,0.70
2019-01-05T07:39:30.552Z,0.70
2019-01-05T07:40:30.541Z,0.70
2019-01-05T07:41:30.528Z,0.60
2019-01-05T07:42:30.540Z,0.80
2019-01-05T07:43:30.508Z,0.70
2019-01-05T07:44:30.494Z,0.70
2019-01-05T07:45:30.484Z,0.60
2019-01-05T07:46:30.474Z,0.70
2019-01-05T07:47:30.485Z,0.70
2019-01-05T07:48:30.962Z,0.60
2019-01-05T07:49:30.439Z,0.80
2019-01-05T07:50:30.435Z,0.50
2019-01-05T07:51:30.418Z,0.60
2019-01-05T07:52:30.477Z,0.60
2019-01-05T07:53:30.958Z,0.70
2019-01-05T07:54:30.385Z,0.80
2019-01-05T07:55:30.374Z,0.70
2019-01-05T07:56:30.363Z,0.60
2019-01-05T07:57:30.380Z,0.70
2019-01-05T07:58:30.348Z,0.70
2019-01-05T07:59:30.964Z,0.50
2019-01-05T08:00:30.330Z,0.70
2019-01-05T08:01:30.309Z,0.70
2019-01-05T08:02:30.470Z,0.70
2019-01-05T08:03:30.287Z,0.70
2019-01-05T08:04:30.279Z,0.60
2019-01-05T08:05:30.261Z,0.70
2019-01-05T08:06:30.955Z,0.50
2019-01-05T08:07:30.254Z,0.70
2019-01-05T08:08:30.250Z,0.60
2019-01-05T08:09:30.959Z,0.50
2019-01-05T08:10:30.959Z,0.70
2019-01-05T08:11:30.196Z,0.70
2019-01-05T08:12:30.959Z,0.70
2019-01-05T08:13:30.190Z,0.60
2019-01-05T08:14:30.165Z,0.50
2019-01-05T08:15:30.155Z,0.60
2019-01-05T08:16:30.957Z,0.60
2019-01-05T08:17:30.133Z,0.70
2019-01-05T08:18:30.141Z,0.60
2019-01-05T08:19:30.109Z,0.70
2019-01-05T08:20:31.421Z,0.50
2019-01-05T08:21:30.962Z,0.80
2019-01-05T08:22:30.077Z,0.50
2019-01-05T08:23:30.086Z,0.50
2019-01-05T08:24:30.055Z,0.50
2019-01-05T08:25:30.044Z,0.60
2019-01-05T08:26:30.034Z,0.70
2019-01-05T08:27:30.022Z,0.60
2019-01-05T08:28:30.472Z,0.50
2019-01-05T08:29:30.000Z,0.50
2019-01-05T08:30:29.991Z,0.40
2019-01-05T08:31:29.987Z,0.60
2019-01-05T08:32:29.967Z,0.50
2019-01-05T08:33:29.978Z,0.60
2019-01-05T08:34:29.966Z,0.60
2019-01-05T08:35:29.933Z,0.50
2019-01-05T08:36:29.923Z,0.60
2019-01-05T08:37:29.913Z,0.60
2019-01-05T08:38:29.919Z,0.70
2019-01-05T08:39:29.899Z,0.70
2019-01-05T08:40:30.461Z,0.70
2019-01-05T08:41:30.462Z,0.60
2019-01-05T08:42:29.858Z,0.60
2019-01-05T08:43:29.865Z,0.50
2019-01-05T08:44:29.838Z,0.50
2019-01-05T08:45:29.837Z,0.60
2019-01-05T08:46:29.815Z,0.60
2019-01-05T08:47:29.801Z,0.50
2019-01-05T08:48:29.812Z,0.60
2019-01-05T08:49:30.462Z,0.40
2019-01-05T08:50:29.773Z,0.70
2019-01-05T08:51:29.757Z,0.50
2019-01-05T08:52:29.750Z,0.60
2019-01-05T08:53:29.757Z,0.70
2019-01-05T08:54:29.722Z,0.50
2019-01-05T08:55:29.718Z,0.60
2019-01-05T08:56:29.704Z,0.60
2019-01-05T08:57:29.697Z,0.40
2019-01-05T08:58:29.990Z,0.60
2019-01-05T08:59:29.671Z,0.60
2019-01-05T09:00:29.661Z,0.40
2019-01-05T09:01:29.683Z,0.50
2019-01-05T09:02:29.757Z,0.50
2019-01-05T09:03:29.643Z,0.50
2019-01-05T09:04:29.613Z,0.60
2019-01-05T09:05:30.465Z,0.60
2019-01-05T09:06:29.594Z,0.60
2019-01-05T09:07:29.586Z,0.60
2019-01-05T09:08:29.992Z,0.50
2019-01-05T09:09:29.558Z,0.50
2019-01-05T09:10:29.549Z,0.60
2019-01-05T09:11:29.539Z,0.60
2019-01-05T09:12:29.527Z,0.40
2019-01-05T09:13:29.983Z,0.60
2019-01-05T09:14:29.506Z,0.60
2019-01-05T09:15:29.494Z,0.40
2019-01-05T09:16:29.480Z,0.50
2019-01-05T09:17:29.474Z,0.50
2019-01-05T09:18:29.480Z,0.40
2019-01-05T09:19:29.972Z,0.50
2019-01-05T09:20:29.442Z,0.50
2019-01-05T09:21:29.986Z,0.40
2019-01-05T09:22:29.421Z,0.60
2019-01-05T09:23:29.476Z,0.50
2019-01-05T09:24:29.963Z,0.60
2019-01-05T09:25:29.409Z,0.60
2019-01-05T09:26:29.373Z,0.50
2019-01-05T09:27:29.367Z,0.50
2019-01-05T09:28:29.366Z,0.50
2019-01-05T09:29:29.342Z,0.30
2019-01-05T09:30:29.330Z,0.50
2019-01-05T09:31:29.963Z,0.40
2019-01-05T09:32:29.309Z,0.70
2019-01-05T09:33:29.321Z,0.60
2019-01-05T09:34:29.287Z,0.60
2019-01-05T09:35:29.276Z,0.50
2019-01-05T09:36:29.963Z,0.60
2019-01-05T09:37:29.299Z,0.40
2019-01-05T09:38:29.260Z,0.40
2019-01-05T09:39:29.230Z,0.60
2019-01-05T09:40:29.221Z,0.50
2019-01-05T09:41:29.207Z,0.50
2019-01-05T09:42:29.197Z,0.40
2019-01-05T09:43:29.200Z,0.60
2019-01-05T09:44:29.177Z,0.50
2019-01-05T09:45:29.167Z,0.50
2019-01-05T09:46:29.162Z,0.50
2019-01-05T09:47:29.186Z,0.50
2019-01-05T09:48:29.151Z,0.40
2019-01-05T09:49:29.121Z,0.40
2019-01-05T09:50:29.110Z,0.60
2019-01-05T09:51:29.100Z,0.40
2019-01-05T09:52:29.087Z,0.40
2019-01-05T09:53:29.482Z,0.40
2019-01-05T09:54:29.074Z,0.40
2019-01-05T09:55:29.055Z,0.50
2019-01-05T09:56:29.045Z,0.60
2019-01-05T09:57:29.030Z,0.50
2019-01-05T09:58:29.043Z,0.30
2019-01-05T09:59:29.013Z,0.50
2019-01-05T10:00:29.967Z,0.40
2019-01-05T10:01:28.988Z,0.40
2019-01-05T10:02:28.977Z,0.40
2019-01-05T10:03:28.986Z,0.50
2019-01-05T10:04:29.478Z,0.50
2019-01-05T10:05:29.472Z,0.40
2019-01-05T10:06:28.931Z,0.50
2019-01-05T10:07:29.466Z,0.40
2019-01-05T10:08:28.945Z,0.30
2019-01-05T10:09:28.903Z,0.40
2019-01-05T10:10:29.465Z,0.40
2019-01-05T10:11:28.881Z,0.50
2019-01-05T10:12:28.897Z,0.40
2019-01-05T10:13:28.887Z,0.40
2019-01-05T10:14:28.986Z,0.40
2019-01-05T10:15:28.835Z,0.40
2019-01-05T10:16:28.824Z,0.50
2019-01-05T10:17:28.837Z,0.40
2019-01-05T10:18:28.820Z,0.40
2019-01-05T10:19:28.803Z,0.40
2019-01-05T10:20:28.784Z,0.40
2019-01-05T10:21:28.768Z,0.50
2019-01-05T10:22:29.464Z,0.50
2019-01-05T10:23:28.752Z,0.50
2019-01-05T10:24:28.758Z,0.60
2019-01-05T10:25:28.722Z,0.50
2019-01-05T10:26:28.711Z,0.50
2019-01-05T10:27:29.465Z,0.40
2019-01-05T10:28:28.696Z,0.40
2019-01-05T10:29:28.699Z,0.40
2019-01-05T10:30:28.670Z,0.50
2019-01-05T10:31:28.660Z,0.40
2019-01-05T10:32:28.652Z,0.40
2019-01-05T10:33:28.636Z,0.40
2019-01-05T10:34:28.649Z,0.40
2019-01-05T10:35:28.616Z,0.30
2019-01-05T10:36:28.604Z,0.40
2019-01-05T10:37:29.466Z,0.30
2019-01-05T10:38:28.582Z,0.40
2019-01-05T10:39:28.583Z,0.40
2019-01-05T10:40:28.559Z,0.30
2019-01-05T10:41:28.549Z,0.40
2019-01-05T10:42:28.538Z,0.30
2019-01-05T10:43:28.525Z,0.30
2019-01-05T10:44:28.978Z,0.30
2019-01-05T10:45:29.466Z,0.70
2019-01-05T10:46:28.498Z,0.40
2019-01-05T10:47:29.468Z,0.50
2019-01-05T10:48:28.470Z,0.40
2019-01-05T10:49:28.477Z,0.40
2019-01-05T10:50:28.449Z,0.20
2019-01-05T10:51:28.968Z,0.40
2019-01-05T10:52:28.427Z,0.30
2019-01-05T10:53:28.418Z,0.30
2019-01-05T10:54:28.422Z,0.30
2019-01-05T10:55:28.396Z,0.20
2019-01-05T10:56:28.382Z,0.20
2019-01-05T10:57:28.370Z,0.50
2019-01-05T10:58:28.365Z,0.50
2019-01-05T10:59:28.366Z,0.40
2019-01-05T11:00:28.967Z,0.40
2019-01-05T11:01:28.968Z,0.40
2019-01-05T11:02:28.318Z,0.20
2019-01-05T11:03:28.304Z,0.50
2019-01-05T11:04:28.308Z,0.30
2019-01-05T11:05:28.284Z,0.50
2019-01-05T11:06:28.974Z,0.30
2019-01-05T11:07:28.976Z,0.30
2019-01-05T11:08:28.254Z,0.30
2019-01-05T11:09:28.256Z,0.40
2019-01-05T11:10:28.227Z,0.40
2019-01-05T11:11:28.219Z,0.20
2019-01-05T11:12:28.968Z,0.30
2019-01-05T11:13:28.205Z,0.50
2019-01-05T11:14:28.197Z,0.50
2019-01-05T11:15:28.172Z,0.40
2019-01-05T11:16:28.159Z,0.40
2019-01-05T11:17:28.148Z,0.30
2019-01-05T11:18:28.137Z,0.40
2019-01-05T11:19:28.145Z,0.30
2019-01-05T11:20:28.123Z,0.50
2019-01-05T11:21:28.106Z,0.40
2019-01-05T11:22:28.095Z,0.50
2019-01-05T11:23:28.976Z,0.20
2019-01-05T11:24:28.103Z,0.40
2019-01-05T11:25:28.081Z,0.30
2019-01-05T11:26:28.049Z,0.30
2019-01-05T11:27:28.038Z,0.40
2019-01-05T11:28:28.028Z,0.30
2019-01-05T11:29:28.487Z,0.30
2019-01-05T11:30:28.019Z,0.40
2019-01-05T11:31:28.969Z,0.40
2019-01-05T11:32:27.989Z,0.30
2019-01-05T11:33:27.975Z,0.40
2019-01-05T11:34:27.986Z,0.20
2019-01-05T11:35:27.958Z,0.30
2019-01-05T11:36:27.950Z,0.30
2019-01-05T11:37:27.930Z,0.40
2019-01-05T11:38:27.928Z,0.40
2019-01-05T11:39:27.994Z,0.60
2019-01-05T11:40:28.487Z,0.60
2019-01-05T11:41:28.473Z,0.20
2019-01-05T11:42:28.471Z,0.40
2019-01-05T11:43:27.883Z,0.30
2019-01-05T11:44:27.884Z,0.40
2019-01-05T11:45:28.502Z,0.30
2019-01-05T11:46:28.474Z,0.20
2019-01-05T11:47:27.822Z,0.30
2019-01-05T11:48:27.820Z,0.40
2019-01-05T11:49:27.813Z,0.40
2019-01-05T11:50:27.793Z,0.30
2019-01-05T11:51:27.784Z,0.30
2019-01-05T11:52:27.767Z,0.30
2019-01-05T11:53:27.760Z,0.50
2019-01-05T11:54:27.760Z,0.40
2019-01-05T11:55:27.733Z,0.30
2019-01-05T11:56:27.722Z,0.20
2019-01-05T11:57:28.473Z,0.30
2019-01-05T11:58:28.471Z,0.40
2019-01-05T11:59:27.704Z,0.30
2019-01-05T12:00:27.681Z,0.30
2019-01-05T12:01:27.667Z,0.30
2019-01-05T12:02:27.670Z,0.30
2019-01-05T12:03:27.643Z,0.30
2019-01-05T12:04:27.995Z,0.30
2019-01-05T12:05:28.470Z,0.30
2019-01-05T12:06:27.614Z,0.40
2019-01-05T12:07:27.601Z,0.30
2019-01-05T12:08:27.611Z,0.40
2019-01-05T12:09:27.606Z,0.30
2019-01-05T12:10:28.479Z,0.30
2019-01-05T12:11:27.578Z,0.20
2019-01-05T12:12:27.545Z,0.40
2019-01-05T12:13:27.534Z,0.40
2019-01-05T12:14:27.546Z,0.30
2019-01-05T12:15:27.513Z,0.50
2019-01-05T12:16:27.519Z,0.30
2019-01-05T12:17:27.501Z,0.40
2019-01-05T12:18:27.481Z,0.30
2019-01-05T12:19:27.530Z,0.40
2019-01-05T12:20:27.463Z,0.30
2019-01-05T12:21:27.447Z,0.30
2019-01-05T12:22:27.975Z,0.40
2019-01-05T12:23:27.428Z,0.30
2019-01-05T12:24:27.418Z,0.30
2019-01-05T12:25:27.420Z,0.40
2019-01-05T12:26:27.390Z,0.30
2019-01-05T12:27:27.400Z,0.30
2019-01-05T12:28:27.422Z,0.60
2019-01-05T12:29:27.364Z,0.30
2019-01-05T12:30:27.375Z,0.30
2019-01-05T12:31:27.351Z,0.30
2019-01-05T12:32:27.334Z,0.40
2019-01-05T12:33:27.317Z,0.20
2019-01-05T12:34:27.308Z,0.30
2019-01-05T12:35:27.308Z,0.20
2019-01-05T12:36:27.287Z,0.30
2019-01-05T12:37:27.976Z,0.40
2019-01-05T12:38:27.263Z,0.30
2019-01-05T12:39:27.249Z,0.30
2019-01-05T12:40:27.256Z,0.30
2019-01-05T12:41:27.232Z,0.20
2019-01-05T12:42:27.217Z,0.40
2019-01-05T12:43:27.203Z,0.30
2019-01-05T12:44:27.974Z,0.50
2019-01-05T12:45:27.492Z,0.30
2019-01-05T12:46:27.172Z,0.30
2019-01-05T12:47:27.162Z,0.40
2019-01-05T12:48:27.150Z,0.30
2019-01-05T12:49:27.137Z,0.30
2019-01-05T12:50:27.488Z,0.30
2019-01-05T12:51:27.128Z,0.30
2019-01-05T12:52:27.108Z,0.40
2019-01-05T12:53:27.095Z,0.20
2019-01-05T12:54:27.983Z,0.40
2019-01-05T12:55:27.097Z,0.30
2019-01-05T12:56:27.068Z,0.30
2019-01-05T12:57:27.065Z,0.30
2019-01-05T12:58:27.041Z,0.30
2019-01-05T12:59:27.029Z,0.40
2019-01-05T13:00:27.524Z,0.20
2019-01-05T13:01:27.009Z,0.30
2019-01-05T13:02:27.011Z,0.30
2019-01-05T13:03:26.985Z,0.20
2019-01-05T13:04:26.975Z,0.20
2019-01-05T13:05:26.989Z,0.20
2019-01-05T13:06:26.949Z,0.30
2019-01-05T13:07:27.480Z,0.40
2019-01-05T13:08:26.926Z,0.30
2019-01-05T13:09:26.921Z,0.30
2019-01-05T13:10:26.993Z,0.20
2019-01-05T13:11:27.478Z,0.30
2019-01-05T13:12:26.898Z,0.30
2019-01-05T13:13:26.877Z,0.20
2019-01-05T13:14:26.869Z,0.30
2019-01-05T13:15:26.868Z,0.30
2019-01-05T13:16:26.842Z,0.30
2019-01-05T13:17:26.828Z,0.30
2019-01-05T13:18:26.817Z,0.20